Time;durP1;ratioP1;P1;durP2;ratioP2;P2;SDS_P1;SDS_P2;PMS_P1;PMS_P2;Temp;Humidity;BMP_temperature;BMP_pressure;BME280_temperature;BME280_humidity;BME280_pressure;Samples;Min_cycle;Max_cycle;Signal;HPM_P1;HPM_P2
2022/11/06 00:00:17;;;;;;;18.26;16.83;;;;;;;5.89;68.09;102058.69;455854;116;923036;-76
2022/11/06 00:01:22;;;;;;;18.63;17.26;;;;;;;5.88;68.21;102051.56;455730;116;922604;-77
2022/11/06 00:02:25;;;;;;;17.23;16.02;;;;;;;5.86;68.25;102048.97;455830;116;923021;-77
2022/11/06 00:03:28;;;;;;;17.51;16.27;;;;;;;5.86;68.11;102060.64;455898;116;922510;-78
2022/11/06 00:04:32;;;;;;;17.18;16.02;;;;;;;5.86;68.16;102054.38;455880;116;922801;-77
2022/11/06 00:07:01;;;;;;;15.00;13.98;;;;;;;5.86;68.16;102060.64;455640;116;923106;-78
2022/11/06 00:08:04;;;;;;;15.94;14.54;;;;;;;5.84;68.10;102050.98;455885;116;922539;-77
2022/11/06 00:09:10;;;;;;;16.15;14.95;;;;;;;5.82;68.09;102053.83;455858;116;922549;-79
2022/11/06 00:10:15;;;;;;;16.37;15.09;;;;;;;5.83;68.27;102058.25;455598;116;922589;-76
2022/11/06 00:11:18;;;;;;;16.03;14.85;;;;;;;5.84;68.30;102059.11;455719;116;922932;-76
2022/11/06 00:12:21;;;;;;;15.74;14.63;;;;;;;5.84;68.37;102064.52;455869;116;922968;-77
2022/11/06 00:13:24;;;;;;;16.59;15.37;;;;;;;5.86;68.40;102062.50;455845;116;922764;-77
2022/11/06 00:14:27;;;;;;;15.58;14.54;;;;;;;5.86;68.43;102057.94;455875;116;922562;-76
2022/11/06 00:15:30;;;;;;;16.12;15.04;;;;;;;5.86;68.49;102060.64;455772;116;922646;-77
2022/11/06 00:16:33;;;;;;;16.67;14.98;;;;;;;5.88;68.50;102063.25;459279;115;930272;-77
2022/11/06 00:17:37;;;;;;;16.44;15.16;;;;;;;5.90;68.44;102060.40;458067;116;922491;-77
2022/11/06 00:18:40;;;;;;;16.08;14.98;;;;;;;5.91;68.44;102065.64;461701;115;923073;-75
2022/11/06 00:19:43;;;;;;;14.95;13.63;;;;;;;5.91;68.38;102062.94;461658;114;922644;-76
2022/11/06 00:20:46;;;;;;;15.94;14.76;;;;;;;5.91;68.22;102070.20;462862;114;922566;-77
2022/11/06 00:21:49;;;;;;;16.14;14.96;;;;;;;5.91;68.27;102065.64;462816;114;922998;-76
2022/11/06 00:22:52;;;;;;;16.12;14.95;;;;;;;5.92;68.13;102067.36;462836;114;922459;-76
2022/11/06 00:23:57;;;;;;;15.16;14.09;;;;;;;5.92;68.09;102070.06;462870;114;922871;-77
2022/11/06 00:25:00;;;;;;;15.74;14.64;;;;;;;5.92;68.07;102058.38;462617;114;922935;-77
2022/11/06 00:26:07;;;;;;;16.09;14.99;;;;;;;5.91;68.05;102062.94;462839;114;922556;-77
2022/11/06 00:27:11;;;;;;;15.45;14.41;;;;;;;5.91;67.96;102056.67;462657;114;922604;-77
2022/11/06 00:28:16;;;;;;;15.39;14.31;;;;;;;5.90;68.00;102055.81;462672;114;923258;-77
2022/11/06 00:29:19;;;;;;;15.23;14.17;;;;;;;5.90;67.98;102054.98;462872;114;922569;-77
2022/11/06 00:30:24;;;;;;;15.39;14.27;;;;;;;5.90;67.98;102065.81;459579;114;922494;-77
2022/11/06 00:31:29;;;;;;;14.69;13.61;;;;;;;5.89;67.78;102062.25;450111;118;923232;-75
2022/11/06 00:32:32;;;;;;;14.81;13.50;;;;;;;5.89;67.87;102064.96;444516;117;922633;-76
2022/11/06 00:33:35;;;;;;;15.66;14.49;;;;;;;5.89;67.89;102062.25;455267;116;922595;-76
2022/11/06 00:34:38;;;;;;;14.41;13.51;;;;;;;5.89;67.90;102061.39;455342;116;923226;-76
2022/11/06 00:35:42;;;;;;;15.92;14.45;;;;;;;5.90;67.93;102055.81;455259;116;922581;-77
2022/11/06 00:36:45;;;;;;;14.84;13.58;;;;;;;5.90;67.85;102054.98;455353;116;922610;-75
2022/11/06 00:37:50;;;;;;;15.42;14.05;;;;;;;5.90;67.83;102063.11;455258;116;922643;-76
2022/11/06 00:38:54;;;;;;;15.16;14.07;;;;;;;5.90;67.78;102063.94;455358;116;922641;-77
2022/11/06 00:39:58;;;;;;;15.55;14.39;;;;;;;5.91;67.78;102054.81;455204;116;922501;-77
2022/11/06 00:41:06;;;;;;;16.15;14.85;;;;;;;5.91;67.89;102062.08;455170;116;930362;-76
2022/11/06 00:42:09;;;;;;;15.39;14.36;;;;;;;5.92;67.83;102066.50;462664;114;922718;-77
2022/11/06 00:43:13;;;;;;;16.21;14.98;;;;;;;5.91;67.89;102062.94;450979;117;923291;-77
2022/11/06 00:44:16;;;;;;;14.19;13.13;;;;;;;5.91;67.77;102060.23;455302;116;922702;-78
2022/11/06 00:45:19;;;;;;;15.68;14.56;;;;;;;5.91;67.69;102057.52;455259;116;930472;-77
2022/11/06 00:46:23;;;;;;;13.64;12.75;;;;;;;5.90;67.64;102069.34;455350;116;922888;-77
2022/11/06 00:47:26;;;;;;;13.88;12.91;;;;;;;5.91;67.62;102062.08;455236;116;922962;-76
2022/11/06 00:48:30;;;;;;;14.51;13.51;;;;;;;5.90;67.66;102054.98;455210;116;930520;-76
2022/11/06 00:49:33;;;;;;;14.33;13.19;;;;;;;5.89;67.67;102054.13;455387;116;922606;-77
2022/11/06 00:50:37;;;;;;;14.65;13.65;;;;;;;5.90;67.74;102060.40;455254;116;922648;-76
2022/11/06 00:51:41;;;;;;;14.44;13.41;;;;;;;5.90;67.66;102063.94;455207;116;922758;-76
2022/11/06 00:52:45;;;;;;;14.69;13.68;;;;;;;5.91;67.71;102062.94;455162;116;923292;-76
2022/11/06 00:53:54;;;;;;;14.41;13.21;;;;;;;5.92;67.73;102063.79;455379;116;922519;-75
2022/11/06 00:54:57;;;;;;;15.20;14.07;;;;;;;5.91;67.62;102060.23;455151;116;922443;-77
2022/11/06 00:56:05;;;;;;;15.20;14.09;;;;;;;5.92;67.60;102059.23;455328;114;922774;-77
2022/11/06 00:57:09;;;;;;;15.07;14.07;;;;;;;5.92;67.62;102058.38;455146;116;922915;-77
2022/11/06 00:58:12;;;;;;;14.38;13.39;;;;;;;5.93;67.59;102062.80;455306;116;922531;-78
2022/11/06 00:59:15;;;;;;;15.30;14.20;;;;;;;5.93;67.58;102063.66;455301;116;922941;-76
2022/11/06 01:00:19;;;;;;;13.54;12.58;;;;;;;5.93;67.63;102060.95;455196;116;930365;-76
2022/11/06 01:01:24;;;;;;;14.43;13.36;;;;;;;5.93;67.69;102071.77;455285;116;922506;-77
2022/11/06 01:02:28;;;;;;;14.22;13.22;;;;;;;5.93;67.59;102063.66;455151;116;922533;-77
2022/11/06 01:03:31;;;;;;;13.70;12.57;;;;;;;5.94;67.57;102062.66;455325;116;922487;-77
2022/11/06 01:04:34;;;;;;;13.99;13.09;;;;;;;5.95;67.52;102061.66;455305;116;922605;-77
2022/11/06 01:05:37;;;;;;;13.44;12.54;;;;;;;5.95;67.51;102064.37;455278;116;922540;-76
2022/11/06 01:06:43;;;;;;;13.27;12.36;;;;;;;5.95;67.55;102071.63;455320;114;922461;-77
2022/11/06 01:07:46;;;;;;;14.40;13.27;;;;;;;5.95;67.53;102066.22;455138;116;922548;-77
2022/11/06 01:08:50;;;;;;;14.89;13.72;;;;;;;5.96;67.52;102067.90;455379;116;922660;-76
2022/11/06 01:09:53;;;;;;;15.54;13.60;;;;;;;5.96;67.56;102071.46;455236;116;922487;-76
2022/11/06 01:10:56;;;;;;;18.46;17.00;;;;;;;5.96;67.42;102068.75;455258;116;922843;-76
2022/11/06 01:11:59;;;;;;;19.22;17.76;;;;;;;5.97;67.40;102069.61;455323;116;922826;-76
2022/11/06 01:13:04;;;;;;;18.48;17.12;;;;;;;5.97;67.30;102075.88;452591;116;922862;-77
2022/11/06 01:14:09;;;;;;;18.37;16.97;;;;;;;5.97;67.26;102065.05;455322;116;922475;-76
2022/11/06 01:15:12;;;;;;;17.16;15.67;;;;;;;5.96;67.25;102068.75;455151;116;922621;-76
2022/11/06 01:16:15;;;;;;;16.67;15.42;;;;;;;5.97;67.24;102067.76;454055;116;922577;-76
2022/11/06 01:17:18;;;;;;;13.95;12.95;;;;;;;5.96;67.18;102065.19;462814;114;922990;-77
2022/11/06 01:18:21;;;;;;;13.61;12.63;;;;;;;5.97;67.22;102070.47;462910;114;923018;-76
2022/11/06 01:19:24;;;;;;;14.82;13.66;;;;;;;5.96;67.12;102074.17;462896;114;922500;-76
2022/11/06 01:20:27;;;;;;;12.52;11.68;;;;;;;5.96;67.01;102068.75;463728;114;923070;-77
2022/11/06 01:21:33;;;;;;;14.39;13.32;;;;;;;5.95;66.98;102067.08;456920;115;922639;-77
2022/11/06 01:22:36;;;;;;;14.27;13.09;;;;;;;5.94;66.98;102068.07;457396;114;922707;-77
2022/11/06 01:23:39;;;;;;;14.43;13.33;;;;;;;5.94;66.98;102067.22;466091;114;922819;-77
2022/11/06 01:24:42;;;;;;;13.89;12.70;;;;;;;5.94;66.98;102076.19;466057;114;922874;-78
2022/11/06 01:25:52;;;;;;;13.37;12.28;;;;;;;5.94;66.93;102069.92;466071;114;922850;-78
2022/11/06 01:26:55;;;;;;;12.83;11.93;;;;;;;5.94;66.98;102068.07;462067;114;922936;-78
2022/11/06 01:28:00;;;;;;;12.36;11.47;;;;;;;5.94;66.86;102076.19;462906;114;923022;-77
2022/11/06 01:29:05;;;;;;;13.80;12.59;;;;;;;5.94;66.86;102076.19;463901;114;923010;-77
2022/11/06 01:30:09;;;;;;;13.13;12.19;;;;;;;5.94;66.86;102072.62;453933;116;922739;-78
2022/11/06 01:31:15;;;;;;;11.65;10.59;;;;;;;5.94;66.74;102076.19;457550;116;922505;-77
2022/11/06 01:32:18;;;;;;;12.33;11.43;;;;;;;5.95;66.73;102077.05;459345;114;930326;-78
2022/11/06 01:33:21;;;;;;;12.37;11.44;;;;;;;5.94;66.77;102078.91;462772;114;922704;-77
2022/11/06 01:34:25;;;;;;;11.82;10.94;;;;;;;5.94;66.77;102076.19;456014;114;922588;-77
2022/11/06 01:35:28;;;;;;;11.22;10.34;;;;;;;5.95;66.67;102080.61;454623;116;930348;-78
2022/11/06 01:36:32;;;;;;;11.50;10.71;;;;;;;5.95;66.67;102075.20;454832;116;922797;-78
2022/11/06 01:37:35;;;;;;;12.08;11.19;;;;;;;5.97;66.74;102075.03;454706;116;923328;-78
2022/11/06 01:38:42;;;;;;;10.92;10.22;;;;;;;5.96;66.76;102079.58;454745;116;922512;-77
2022/11/06 01:39:45;;;;;;;11.22;10.42;;;;;;;5.98;66.66;102076.73;448510;118;922685;-77
2022/11/06 01:40:48;;;;;;;12.23;11.31;;;;;;;5.97;66.64;102075.88;466117;111;923072;-77
2022/11/06 01:41:52;;;;;;;12.13;10.19;;;;;;;5.97;66.55;102075.03;475905;111;922835;-77
2022/11/06 01:42:55;;;;;;;11.39;10.48;;;;;;;5.96;66.48;102082.30;475829;111;930035;-78
2022/11/06 01:44:05;;;;;;;11.61;10.81;;;;;;;5.96;66.48;102082.30;475978;111;923017;-77
2022/11/06 01:45:26;;;;;;;;;;;;;;;5.95;66.50;102083.32;479444;111;922176;-78
2022/11/06 01:46:32;;;;;;;10.75;10.02;;;;;;;5.95;66.47;102086.02;457977;115;922576;-77
2022/11/06 01:47:35;;;;;;;10.86;10.14;;;;;;;5.93;66.41;102087.16;458260;115;930642;-78
2022/11/06 01:48:40;;;;;;;10.82;9.98;;;;;;;5.90;66.47;102080.17;458471;115;923096;-78
2022/11/06 01:49:44;;;;;;;11.14;10.32;;;;;;;5.89;66.49;102080.34;475727;111;930536;-77
2022/11/06 01:50:50;;;;;;;11.36;10.56;;;;;;;5.89;66.53;102083.91;476013;111;922949;-75
2022/11/06 01:51:56;;;;;;;11.82;10.88;;;;;;;5.89;66.51;102075.78;475781;111;922484;-77
2022/11/06 01:53:01;;;;;;;11.22;10.52;;;;;;;5.90;66.45;102085.59;475796;111;922519;-77
2022/11/06 01:54:06;;;;;;;10.70;9.96;;;;;;;5.90;66.35;102080.17;475777;111;922784;-77
2022/11/06 01:55:22;;;;;;;10.59;9.87;;;;;;;5.90;66.26;102082.06;475658;111;930055;-77
2022/11/06 01:56:25;;;;;;;10.90;10.10;;;;;;;5.89;66.18;102073.08;466609;113;922604;-76
2022/11/06 01:57:28;;;;;;;10.25;9.56;;;;;;;5.89;66.16;102083.05;467091;111;922587;-76
2022/11/06 01:58:34;;;;;;;10.89;10.10;;;;;;;5.88;66.16;102084.05;475955;111;922679;-77
2022/11/06 01:59:40;;;;;;;10.70;9.99;;;;;;;5.88;66.28;102079.48;475774;111;922530;-76
2022/11/06 02:00:44;;;;;;;11.66;10.84;;;;;;;5.88;66.23;102079.48;475790;111;922445;-78
2022/11/06 02:01:47;;;;;;;10.02;9.36;;;;;;;5.89;66.17;102085.76;475885;111;922452;-78
2022/11/06 02:02:50;;;;;;;11.86;10.99;;;;;;;5.89;66.19;102088.47;475977;111;922499;-76
2022/11/06 02:04:06;;;;;;;11.70;10.91;;;;;;;5.88;66.18;102084.91;475848;111;922540;-76
2022/11/06 02:05:09;;;;;;;10.13;9.46;;;;;;;5.90;66.18;102090.17;475681;111;923130;-77
2022/11/06 02:06:12;;;;;;;10.78;9.98;;;;;;;5.90;66.14;102093.70;475798;111;922819;-77
2022/11/06 02:07:17;;;;;;;10.37;9.59;;;;;;;5.91;66.04;102097.27;475902;111;922532;-77
2022/11/06 02:08:21;;;;;;;11.20;10.40;;;;;;;5.90;66.12;102095.59;475824;111;922925;-77
2022/11/06 02:09:24;;;;;;;10.44;9.68;;;;;;;5.90;66.07;102096.41;475790;111;923059;-77
2022/11/06 02:10:29;;;;;;;10.46;9.76;;;;;;;5.90;65.98;102088.30;475870;111;922972;-77
2022/11/06 02:11:32;;;;;;;10.42;9.58;;;;;;;5.90;66.06;102095.59;475777;111;930476;-77
2022/11/06 02:12:48;;;;;;;10.72;9.99;;;;;;;5.91;66.04;102095.42;475947;111;922810;-77
2022/11/06 02:14:13;;;;;;;10.02;9.32;;;;;;;5.92;66.00;102096.28;452826;117;923450;-77
2022/11/06 02:15:28;;;;;;;10.37;9.57;;;;;;;5.92;66.03;102097.13;475760;111;922523;-77
2022/11/06 02:16:38;;;;;;;9.96;9.17;;;;;;;5.92;66.03;102102.55;470121;111;922925;-76
2022/11/06 02:18:03;;;;;;;10.62;9.70;;;;;;;5.93;66.00;102103.41;466642;113;922541;-77
2022/11/06 02:19:09;;;;;;;10.05;9.25;;;;;;;5.92;65.88;102104.39;466631;113;922620;-78
2022/11/06 02:20:22;;;;;;;9.78;9.13;;;;;;;5.91;65.86;102106.25;459979;114;922687;-78
2022/11/06 02:21:46;;;;;;;10.21;9.38;;;;;;;5.90;65.87;102103.71;463966;113;922578;-77
2022/11/06 02:23:07;;;;;;;9.42;8.72;;;;;;;5.89;65.79;102104.70;466624;113;922802;-76
2022/11/06 02:24:16;;;;;;;9.93;9.21;;;;;;;5.88;65.77;102109.27;467194;112;922517;-78
2022/11/06 02:25:31;;;;;;;9.59;8.85;;;;;;;5.86;65.84;102109.38;469223;111;922642;-77
2022/11/06 02:26:53;;;;;;;10.25;9.37;;;;;;;5.86;65.76;102108.52;474347;111;922889;-77
2022/11/06 02:28:23;;;;;;;10.22;9.45;;;;;;;5.85;65.76;102109.51;475177;111;922938;-76
2022/11/06 02:29:36;;;;;;;9.46;8.77;;;;;;;5.84;65.75;102105.13;474993;111;922719;-77
2022/11/06 02:30:43;;;;;;;9.87;9.17;;;;;;;5.83;65.84;102111.53;474448;111;922523;-76
2022/11/06 02:31:48;;;;;;;9.64;8.94;;;;;;;5.81;65.79;102111.66;475719;111;922452;-77
2022/11/06 02:33:00;;;;;;;11.19;10.34;;;;;;;5.81;65.68;102113.52;475127;111;923477;-77
2022/11/06 02:34:07;;;;;;;9.39;8.71;;;;;;;5.80;65.69;102112.66;475193;111;922701;-77
2022/11/06 02:35:33;;;;;;;9.49;8.74;;;;;;;5.80;65.72;102117.22;475019;111;922496;-76
2022/11/06 02:36:43;;;;;;;10.14;9.42;;;;;;;5.80;65.71;102119.92;475163;111;922622;-76
2022/11/06 02:37:49;;;;;;;9.09;8.49;;;;;;;5.79;65.78;102113.66;474401;111;923019;-77
2022/11/06 02:38:57;;;;;;;10.04;9.35;;;;;;;5.80;65.71;102115.37;475160;111;922471;-78
2022/11/06 02:40:05;;;;;;;11.12;10.24;;;;;;;5.80;65.73;102109.95;475145;111;922497;-77
2022/11/06 02:41:11;;;;;;;10.17;9.48;;;;;;;5.81;65.49;102111.66;475160;111;922401;-77
2022/11/06 02:42:18;;;;;;;9.29;8.56;;;;;;;5.80;65.52;102119.92;474700;111;922419;-75
2022/11/06 02:43:25;;;;;;;10.27;9.57;;;;;;;5.80;65.54;102119.92;475190;111;922523;-76
2022/11/06 02:44:31;;;;;;;10.93;10.14;;;;;;;5.80;65.45;102109.09;474776;111;922809;-76
2022/11/06 02:45:50;;;;;;;9.86;9.21;;;;;;;5.81;65.44;102113.52;475179;111;922562;-76
2022/11/06 02:46:57;;;;;;;9.97;9.18;;;;;;;5.82;65.54;102116.08;474807;111;923249;-77
2022/11/06 02:48:01;;;;;;;9.78;9.16;;;;;;;5.85;65.45;102118.48;475158;111;922956;-77
2022/11/06 02:49:08;;;;;;;10.13;9.44;;;;;;;5.85;65.45;102118.48;475162;111;923591;-76
2022/11/06 02:50:16;;;;;;;9.84;9.15;;;;;;;5.85;65.49;102114.92;475183;111;922964;-78
2022/11/06 02:51:22;;;;;;;10.36;9.61;;;;;;;5.86;65.28;102111.22;475149;111;923063;-75
2022/11/06 02:52:40;;;;;;;10.54;9.74;;;;;;;5.84;65.00;102114.06;475085;111;922525;-77
2022/11/06 02:53:45;;;;;;;11.31;10.40;;;;;;;5.81;64.85;102117.08;475136;111;922543;-77
2022/11/06 02:54:52;;;;;;;10.95;10.14;;;;;;;5.79;64.92;102115.50;475093;111;922596;-77
2022/11/06 02:55:58;;;;;;;11.37;10.54;;;;;;;5.77;65.02;102118.38;475116;111;922478;-76
2022/11/06 02:57:05;;;;;;;10.26;9.49;;;;;;;5.77;65.02;102118.38;475038;111;922470;-77
2022/11/06 02:58:17;;;;;;;10.24;9.54;;;;;;;5.77;64.94;102122.94;475124;111;922961;-76
2022/11/06 02:59:24;;;;;;;10.04;9.28;;;;;;;5.75;64.94;102117.66;474956;111;922523;-77
2022/11/06 03:00:27;;;;;;;10.22;9.49;;;;;;;5.75;64.89;102122.22;465495;114;922552;-76
2022/11/06 03:01:46;;;;;;;10.09;9.19;;;;;;;5.74;64.85;102118.66;466062;111;922560;-77
2022/11/06 03:02:56;;;;;;;8.83;8.18;;;;;;;5.74;64.88;102125.91;475123;111;923031;-77
2022/11/06 03:04:02;;;;;;;9.41;8.80;;;;;;;5.74;64.91;102123.21;475179;111;922618;-76
2022/11/06 03:05:18;;;;;;;10.41;9.73;;;;;;;5.74;64.85;102129.48;475130;111;922980;-77
2022/11/06 03:06:37;;;;;;;9.27;8.56;;;;;;;5.75;64.94;102131.19;475109;111;922928;-78
2022/11/06 03:07:45;;;;;;;9.80;9.10;;;;;;;5.75;64.94;102138.45;475446;111;922916;-77
2022/11/06 03:08:53;;;;;;;10.09;9.28;;;;;;;5.75;64.97;102133.05;475083;111;922583;-76
2022/11/06 03:09:56;;;;;;;10.19;9.49;;;;;;;5.76;64.98;102137.46;475152;111;922487;-78
2022/11/06 03:11:18;;;;;;;10.39;9.66;;;;;;;5.77;64.87;102131.91;475256;111;922431;-77
2022/11/06 03:12:25;;;;;;;9.82;9.14;;;;;;;5.76;64.96;102129.34;465464;113;930694;-77
2022/11/06 03:13:35;;;;;;;9.39;8.76;;;;;;;5.77;64.98;102137.33;466591;111;922703;-77
2022/11/06 03:14:48;;;;;;;8.12;7.62;;;;;;;5.77;64.98;102133.77;474363;111;922941;-76
2022/11/06 03:16:03;;;;;;;8.74;8.13;;;;;;;5.78;65.03;102139.04;474617;111;923283;-77
2022/11/06 03:17:06;;;;;;;8.75;8.15;;;;;;;5.78;64.97;102132.77;466193;113;922624;-77
2022/11/06 03:18:19;;;;;;;7.67;7.13;;;;;;;5.79;64.88;102129.03;466584;113;922625;-76
2022/11/06 03:19:46;;;;;;;9.52;8.82;;;;;;;5.79;64.70;102129.03;466445;113;922589;-76
2022/11/06 03:21:01;;;;;;;8.92;8.18;;;;;;;5.79;64.70;102129.03;466143;113;922506;-77
2022/11/06 03:22:10;;;;;;;9.37;8.71;;;;;;;5.77;64.70;102125.64;477925;110;923245;-77
2022/11/06 03:23:24;;;;;;;9.33;8.59;;;;;;;5.75;64.71;102131.19;480588;110;922441;-77
2022/11/06 03:24:30;;;;;;;10.08;9.27;;;;;;;5.74;64.65;102125.91;480565;110;930448;-77
2022/11/06 03:25:52;;;;;;;10.11;9.41;;;;;;;5.72;64.62;102122.52;461450;110;922969;-76
2022/11/06 03:26:57;;;;;;;10.08;9.32;;;;;;;5.71;64.65;102118.10;480699;110;922809;-77
2022/11/06 03:28:13;;;;;;;9.87;9.13;;;;;;;5.70;64.73;102122.66;480789;110;922704;-77
2022/11/06 03:29:25;;;;;;;9.78;8.99;;;;;;;5.70;64.60;102127.22;480610;110;922564;-77
2022/11/06 03:30:29;;;;;;;10.35;9.56;;;;;;;5.68;64.57;102124.64;471186;110;922434;-76
2022/11/06 03:31:36;;;;;;;9.64;8.98;;;;;;;5.68;64.68;102126.53;470812;112;922606;-77
2022/11/06 03:32:59;;;;;;;9.88;9.18;;;;;;;5.67;64.60;102122.11;467019;112;922686;-77
2022/11/06 03:34:06;;;;;;;10.48;9.78;;;;;;;5.67;64.61;102119.41;466728;111;922617;-77
2022/11/06 03:35:12;;;;;;;9.94;9.24;;;;;;;5.67;64.65;102114.84;466715;113;922555;-76
2022/11/06 03:36:32;;;;;;;10.27;9.57;;;;;;;5.69;64.65;102128.20;466358;113;923120;-77
2022/11/06 03:37:47;;;;;;;9.78;9.04;;;;;;;5.69;64.60;102123.66;466697;113;922490;-77
2022/11/06 03:38:57;;;;;;;9.68;8.98;;;;;;;5.69;64.63;102122.80;466308;113;923027;-77
2022/11/06 03:40:03;;;;;;;9.84;9.14;;;;;;;5.68;64.55;102121.94;466676;113;922481;-77
2022/11/06 03:41:10;;;;;;;9.16;8.56;;;;;;;5.68;64.61;102124.64;466662;113;922646;-77
2022/11/06 03:42:16;;;;;;;9.31;8.71;;;;;;;5.69;64.55;102117.39;447433;113;922786;-77
2022/11/06 03:43:22;;;;;;;9.74;9.04;;;;;;;5.70;64.55;102127.22;466680;113;922490;-77
2022/11/06 03:44:27;;;;;;;9.78;9.08;;;;;;;5.71;64.64;102120.81;466656;113;922572;-76
2022/11/06 03:45:32;;;;;;;9.58;8.88;;;;;;;5.73;64.57;102125.06;466703;113;922904;-77
2022/11/06 03:46:39;;;;;;;9.52;8.85;;;;;;;5.73;64.57;102125.06;466636;113;923077;-77
2022/11/06 03:47:46;;;;;;;9.73;9.04;;;;;;;5.74;64.40;102124.06;466681;113;923065;-75
2022/11/06 03:48:55;;;;;;;9.66;9.00;;;;;;;5.75;64.36;102127.63;465592;113;922696;-77
2022/11/06 03:50:13;;;;;;;9.43;8.80;;;;;;;5.76;64.40;102126.64;466663;113;922595;-78
2022/11/06 03:51:34;;;;;;;9.72;8.92;;;;;;;5.75;64.30;102128.48;454724;116;923046;-76
2022/11/06 03:52:47;;;;;;;9.80;8.99;;;;;;;5.74;64.20;102125.91;466671;113;922575;-77
2022/11/06 03:53:54;;;;;;;9.61;8.91;;;;;;;5.73;64.21;102125.06;466568;113;922691;-76
2022/11/06 03:55:06;;;;;;;9.43;8.73;;;;;;;5.74;64.25;102129.48;466643;113;922469;-75
2022/11/06 03:56:31;;;;;;;8.96;8.36;;;;;;;5.72;64.13;102128.79;465571;113;922604;-75
2022/11/06 03:57:49;;;;;;;9.84;9.14;;;;;;;5.72;64.17;102128.79;466355;113;922498;-76
2022/11/06 03:58:54;;;;;;;10.07;9.27;;;;;;;5.71;64.14;102132.49;465737;113;922497;-77
2022/11/06 04:00:00;;;;;;;9.69;9.00;;;;;;;5.70;64.15;102138.04;466639;113;922557;-76
2022/11/06 04:01:06;;;;;;;9.72;9.09;;;;;;;5.70;64.21;102138.90;466683;113;922583;-76
2022/11/06 04:02:12;;;;;;;9.80;9.10;;;;;;;5.69;64.14;102134.48;466622;113;922493;-76
2022/11/06 04:03:19;;;;;;;9.82;9.17;;;;;;;5.71;64.21;102131.63;466685;113;922584;-76
2022/11/06 04:04:29;;;;;;;8.96;8.34;;;;;;;5.72;64.23;102133.34;466301;113;922773;-77
2022/11/06 04:05:38;;;;;;;9.84;9.14;;;;;;;5.74;64.09;102134.03;466720;113;922568;-77
2022/11/06 04:06:56;;;;;;;9.41;8.76;;;;;;;5.73;63.97;102133.17;466466;113;922621;-76
2022/11/06 04:13:56;;;;;;;10.18;9.39;;;;;;;5.69;64.01;102141.73;466685;113;922561;-76
2022/11/06 04:15:00;;;;;;;10.03;9.26;;;;;;;5.68;63.95;102142.77;466718;113;922574;-76
2022/11/06 04:16:04;;;;;;;9.25;8.58;;;;;;;5.66;64.02;102140.20;466681;113;922506;-76
2022/11/06 04:17:11;;;;;;;9.80;9.13;;;;;;;5.66;64.02;102140.20;465395;114;923075;-76
2022/11/06 04:18:19;;;;;;;9.48;8.78;;;;;;;5.65;64.01;102138.48;472130;111;922465;-77
2022/11/06 04:19:23;;;;;;;9.05;8.44;;;;;;;5.65;64.00;102143.89;475114;111;922583;-76
2022/11/06 04:22:23;;;;;;;9.13;8.48;;;;;;;5.65;64.09;102138.48;475056;111;922473;-77
2022/11/06 04:23:32;;;;;;;9.11;8.45;;;;;;;5.65;64.10;102146.59;474226;111;922492;-76
2022/11/06 04:26:36;;;;;;;9.54;8.73;;;;;;;5.63;64.14;102150.43;475150;111;923108;-76
2022/11/06 04:27:47;;;;;;;;;;;;;;;5.62;64.02;102156.88;479062;111;922120;-76
2022/11/06 04:29:11;;;;;;;10.17;9.47;;;;;;;5.60;64.09;102148.89;474585;111;922555;-76
2022/11/06 04:30:16;;;;;;;10.17;9.45;;;;;;;5.58;64.15;102152.72;471735;111;923069;-76
2022/11/06 04:31:26;;;;;;;9.89;9.26;;;;;;;5.55;64.22;102150.31;469727;113;922719;-79
2022/11/06 04:32:39;;;;;;;10.48;9.72;;;;;;;5.56;64.28;102157.44;473685;111;923042;-77
2022/11/06 04:33:48;;;;;;;10.53;9.73;;;;;;;5.56;64.30;102160.15;474455;111;922872;-77
2022/11/06 04:34:58;;;;;;;9.67;8.98;;;;;;;5.56;64.25;102160.15;475749;111;922891;-78
2022/11/06 04:36:07;;;;;;;9.13;8.47;;;;;;;5.57;64.29;102153.75;475751;111;922999;-77
2022/11/06 04:37:14;;;;;;;10.04;9.33;;;;;;;5.58;64.29;102164.40;474807;111;922808;-77
2022/11/06 04:38:36;;;;;;;10.02;9.31;;;;;;;5.58;64.34;102161.69;475063;111;922523;-77
2022/11/06 04:39:57;;;;;;;10.24;9.49;;;;;;;5.60;64.21;102158.85;475526;111;922578;-77
2022/11/06 04:41:13;;;;;;;10.81;10.11;;;;;;;5.60;64.21;102156.15;471637;111;922681;-77
2022/11/06 04:42:42;;;;;;;10.39;9.69;;;;;;;5.60;64.25;102169.67;475104;111;922489;-77
2022/11/06 04:43:51;;;;;;;9.50;8.90;;;;;;;5.60;64.25;102169.67;475161;111;922545;-78
2022/11/06 04:45:01;;;;;;;11.06;10.17;;;;;;;5.61;64.11;102168.69;475103;111;923027;-76
2022/11/06 04:46:07;;;;;;;9.47;8.82;;;;;;;5.59;64.04;102170.66;475153;111;922486;-76
2022/11/06 04:47:13;;;;;;;9.95;9.28;;;;;;;5.60;64.09;102172.38;475129;111;923173;-76
2022/11/06 04:48:18;;;;;;;10.46;9.72;;;;;;;5.60;64.26;102169.67;475139;111;922493;-77
2022/11/06 04:49:22;;;;;;;10.65;9.92;;;;;;;5.61;64.17;102166.84;475172;111;922595;-76
2022/11/06 04:50:27;;;;;;;10.25;9.50;;;;;;;5.61;64.16;102174.95;475185;111;922918;-78
2022/11/06 04:51:34;;;;;;;10.54;9.76;;;;;;;5.63;64.15;102166.67;475083;111;930679;-76
2022/11/06 04:52:38;;;;;;;9.86;9.16;;;;;;;5.64;64.17;102176.50;475119;111;922670;-77
2022/11/06 04:53:43;;;;;;;9.43;8.73;;;;;;;5.65;64.20;102176.36;475183;111;923065;-76
2022/11/06 04:54:46;;;;;;;9.79;9.11;;;;;;;5.67;64.18;102173.52;475262;111;922509;-77
2022/11/06 04:55:53;;;;;;;10.27;9.46;;;;;;;5.68;64.14;102173.36;475306;111;922509;-76
2022/11/06 04:56:59;;;;;;;9.71;9.01;;;;;;;5.69;64.13;102171.50;475082;111;922579;-77
2022/11/06 04:58:02;;;;;;;10.97;10.18;;;;;;;5.69;64.07;102182.33;474629;111;922557;-77
2022/11/06 04:59:05;;;;;;;10.32;9.63;;;;;;;5.69;64.10;102180.48;475373;111;922581;-76
2022/11/06 05:00:16;;;;;;;9.77;9.14;;;;;;;5.69;64.05;102180.48;475284;111;922496;-77
2022/11/06 05:01:19;;;;;;;10.17;9.47;;;;;;;5.70;64.03;102179.49;474900;111;930813;-77
2022/11/06 05:02:23;;;;;;;10.21;9.38;;;;;;;5.69;64.06;102177.77;465517;113;930701;-76
2022/11/06 05:03:26;;;;;;;9.62;9.02;;;;;;;5.69;63.91;102180.48;466256;111;923130;-77
2022/11/06 05:04:29;;;;;;;10.35;9.66;;;;;;;5.69;64.09;102183.19;475329;111;923228;-77
2022/11/06 05:05:34;;;;;;;10.28;9.54;;;;;;;5.69;64.04;102176.92;475117;111;922779;-76
2022/11/06 05:06:37;;;;;;;9.67;8.97;;;;;;;5.70;64.07;102182.20;475356;111;922990;-77
2022/11/06 05:07:40;;;;;;;9.99;9.29;;;;;;;5.71;64.06;102188.47;475327;111;922836;-76
2022/11/06 05:08:44;;;;;;;10.44;9.74;;;;;;;5.71;64.01;102186.61;475293;111;922418;-76
2022/11/06 05:09:49;;;;;;;10.13;9.35;;;;;;;5.70;64.10;102184.91;475070;111;922881;-76
2022/11/06 05:10:53;;;;;;;10.48;9.69;;;;;;;5.71;64.02;102185.76;475276;111;922483;-77
2022/11/06 05:11:57;;;;;;;9.27;8.61;;;;;;;5.72;64.07;102192.89;475162;111;923067;-76
2022/11/06 05:13:00;;;;;;;9.61;8.89;;;;;;;5.72;64.04;102188.33;475244;111;922576;-77
2022/11/06 05:14:03;;;;;;;10.52;9.67;;;;;;;5.73;64.13;102189.19;475352;111;922576;-76
2022/11/06 05:15:06;;;;;;;10.03;9.37;;;;;;;5.73;64.14;102195.42;475353;111;922840;-76
2022/11/06 05:16:10;;;;;;;10.59;9.77;;;;;;;5.74;64.09;102190.87;463527;114;922653;-77
2022/11/06 05:17:13;;;;;;;10.19;9.46;;;;;;;5.74;64.19;102191.73;455946;114;922691;-77
2022/11/06 05:18:18;;;;;;;10.66;9.86;;;;;;;5.75;64.06;102192.58;464604;114;931003;-76
2022/11/06 05:19:21;;;;;;;10.23;9.41;;;;;;;5.75;64.16;102196.14;464678;114;922457;-76
2022/11/06 05:20:24;;;;;;;10.78;10.04;;;;;;;5.75;64.06;102200.70;464715;114;922455;-77